Ariadne — A8TY9 — position and weather

sailwx.info

Track history (hours):
 
Tides and Currents Weather Stations Pressure Air Temp Water Temp Dewpoint Dewpoint Depression Visibility Wind Speed Wind Dir Waves Ship Positions

Ariadne

Last reported at 2018-Jul-13 17:26 UTC. Time now 2018-Jul-16 15:59 UTC.
Position N 31°20' E 121°41'.

Length 189 m; draft 12 m.

Type: Ship. MMSI: 636014459.

Date/timePositionNaut miles runAvg speedWind from/ knotsBaromVisibWave heightAir tempDewpointWater temp
2018-Jul-13 17:26N 31°20' E 121°41'410.0
2018-Jul-13 17:00N 31°18' E 121°46'7 9.9
2018-Jul-13 16:21N 31°16' E 121°53'610.2
2018-Jul-13 15:48N 31°15' E 121°59'310.4
2018-Jul-13 15:28N 31°14' E 122°03'1012.1
2018-Jul-13 14:36N 31°09' E 122°14'213.8
2018-Jul-13 14:30N 31°08' E 122°15'16 9.6
2018-Jul-13 12:47N 31°07' E 122°34'4 7.3
2018-Jul-13 12:14N 31°07' E 122°39'3 6.4
2018-Jul-13 11:47N 31°07' E 122°42'  
Track history (hours):
 
Tides and Currents Weather Stations Pressure Air Temp Water Temp Dewpoint Dewpoint Depression Visibility Wind Speed Wind Dir Waves Ship Positions

Ariadne

Last reported at 2018-Jul-13 17:26 UTC. Time now 2018-Jul-16 15:59 UTC.
Position N 31°20' E 121°41'.

Length 189 m; draft 12 m.

Type: Ship. MMSI: 636014459.

Date/timePositionNaut miles runAvg speedWind from/ knotsBaromVisibWave heightAir tempDewpointWater temp
2018-Jul-13 17:26N 31°20' E 121°41'410.0
2018-Jul-13 17:00N 31°18' E 121°46'7 9.9
2018-Jul-13 16:21N 31°16' E 121°53'610.2
2018-Jul-13 15:48N 31°15' E 121°59'310.4
2018-Jul-13 15:28N 31°14' E 122°03'1012.1
2018-Jul-13 14:36N 31°09' E 122°14'213.8
2018-Jul-13 14:30N 31°08' E 122°15'16 9.6
2018-Jul-13 12:47N 31°07' E 122°34'4 7.3
2018-Jul-13 12:14N 31°07' E 122°39'3 6.4
2018-Jul-13 11:47N 31°07' E 122°42'  

Dump ship's entire track history